Home   Weather   Germany   Lennestadt   Past weeks
Flag for Germany

Past Weather in Lennestadt, North Rhine-Westphalia, Germany — Yesterday and Last 2 Weeks

Currently: 25 °F. Clear. (Weather station: Siegerland Airport, Germany). See more current weather

Past Weather in Lennestadt — Graph

°F

Lennestadt Temperature Yesterday

Maximum temperature yesterday: 36 °F (at 1:20 pm)
Minimum temperature yesterday: 27 °F (at 9:50 pm)
Average temperature yesterday: 31 °F

High & Low Weather Summary for the Past Weeks

 TemperatureHumidityPressure
High41 °F (Feb 2, 10:50 pm)100% (Jan 24, 1:50 am)30.63 "Hg (Jan 24, 1:50 am)
Low19 °F (Jan 29, 1:50 am)41% (Feb 7, 3:20 pm)29.92 "Hg (Jan 30, 6:50 am)
Average32 °F94%30.30 "Hg
* Reported Jan 23 10:20 pm — Feb 7 10:50 pm, Lennestadt. Weather by CustomWeather, © 2023

Note: Actual official high and low records may vary slightly from our data, if they occured in-between our weather recording intervals... More about our weather records

Lennestadt Weather History for the Previous 24 Hours

Scroll right to see more
 ConditionsComfort  
Time TempWeatherWind HumidityBarometerVisibility
10:50 pm
Tue, Feb 7
27 °FClear.8 mph74%30.60 "HgN/A
10:20 pm28 °FClear.6 mph69%30.63 "HgN/A
9:20 pm28 °FClear.7 mph64%30.60 "HgN/A
8:50 pm28 °FClear.8 mph64%30.63 "HgN/A
8:20 pm28 °FClear.7 mph64%30.63 "HgN/A
7:50 pm28 °FClear.7 mph64%30.63 "HgN/A
7:20 pm30 °FClear.7 mph59%30.63 "HgN/A
6:50 pm30 °FClear.5 mph59%30.63 "HgN/A
6:20 pm30 °FClear.6 mph55%30.63 "HgN/A
5:50 pm32 °FClear.3 mph55%30.63 "Hg10 mi
5:20 pm32 °FSunny.5 mph55%30.60 "Hg10 mi
4:20 pm34 °FSunny.6 mph44%30.60 "Hg10 mi
3:50 pm34 °FSunny.6 mph44%30.60 "Hg10 mi
3:20 pm34 °FPassing clouds.7 mph41%30.60 "HgN/A
2:50 pm34 °FPassing clouds.7 mph44%30.60 "HgN/A
2:20 pm34 °FPassing clouds.8 mph44%30.60 "HgN/A
1:50 pm34 °FPassing clouds.7 mph44%30.63 "HgN/A
1:20 pm32 °FSunny.9 mph44%30.63 "Hg10 mi
12:50 pm32 °FSunny.10 mph47%30.63 "Hg10 mi
12:20 pm30 °FPassing clouds.9 mph59%30.63 "HgN/A
11:50 am30 °FSunny.12 mph55%30.63 "Hg10 mi
11:20 am28 °FSunny.10 mph69%30.63 "Hg10 mi
10:50 am28 °FSunny.12 mph74%30.63 "Hg10 mi
10:20 am27 °FPassing clouds.10 mph80%30.63 "HgN/A
9:50 am25 °FPassing clouds.10 mph93%30.63 "HgN/A
9:20 am25 °FPartly sunny.12 mph93%30.63 "Hg5 mi
8:50 am25 °FIce fog.10 mph100%30.63 "Hg3 mi
8:20 am25 °FPartly sunny.8 mph93%30.60 "Hg5 mi
7:50 am25 °FSnow. Passing clouds.7 mph93%30.60 "HgN/A
7:20 am23 °FPassing clouds.7 mph100%30.60 "HgN/A
6:50 am25 °FClear.12 mph93%30.57 "HgN/A
6:20 am25 °FClear.13 mph93%30.57 "HgN/A
5:50 am25 °FClear.14 mph93%30.57 "HgN/A
5:20 am27 °FClear.12 mph86%30.57 "HgN/A
4:50 am25 °FClear.9 mph86%30.57 "HgN/A
4:20 am27 °FPassing clouds.13 mph86%30.57 "HgN/A
3:50 am27 °FOvercast.13 mph86%30.60 "HgN/A
3:20 am27 °FPassing clouds.12 mph86%30.60 "HgN/A
2:50 am27 °FOvercast.12 mph86%30.60 "HgN/A
2:20 am28 °FMostly cloudy.14 mph80%30.60 "HgN/A
1:50 am28 °FOvercast.15 mph80%30.60 "HgN/A
12:20 am28 °FOvercast.14 mph86%30.60 "HgN/A
11:50 pm
Mon, Feb 6
28 °FOvercast.13 mph86%30.60 "HgN/A
11:20 pm28 °FOvercast.13 mph86%30.60 "HgN/A
Weather by CustomWeather, © 2023

See weather overview